Time;durP1;ratioP1;P1;durP2;ratioP2;P2;SDS_P1;SDS_P2;PMS_P1;PMS_P2;Temp;Humidity;BMP_temperature;BMP_pressure;BME280_temperature;BME280_humidity;BME280_pressure;Samples;Min_cycle;Max_cycle;Signal;HPM_P1;HPM_P2
2023/09/06 00:01:23;;;;;;;4.95;3.80;;;16.20;73.50;;;;;;5033266;28;20033;-64
2023/09/06 00:03:49;;;;;;;3.97;3.63;;;16.10;73.50;;;;;;5032353;28;20041;-66
2023/09/06 00:06:14;;;;;;;6.10;4.30;;;16.10;73.50;;;;;;5032659;28;20083;-64
2023/09/06 00:08:40;;;;;;;4.10;3.70;;;16.00;73.50;;;;;;5033995;28;20123;-64
2023/09/06 00:11:06;;;;;;;5.93;4.25;;;16.00;73.70;;;;;;5029512;28;20490;-62
2023/09/06 00:13:32;;;;;;;6.05;4.60;;;15.90;74.00;;;;;;5030919;28;20120;-64
2023/09/06 00:16:02;;;;;;;6.38;4.68;;;15.90;74.20;;;;;;5027801;28;20041;-64
2023/09/06 00:18:28;;;;;;;5.97;4.65;;;15.90;74.60;;;;;;5031319;28;20110;-64
2023/09/06 00:20:54;;;;;;;5.72;4.30;;;15.80;74.70;;;;;;5030558;28;20033;-63
2023/09/06 00:23:21;;;;;;;6.43;4.55;;;15.80;74.80;;;;;;5034638;28;20263;-63
2023/09/06 00:25:46;;;;;;;6.40;4.47;;;15.80;75.00;;;;;;5035443;28;20779;-64
2023/09/06 00:28:13;;;;;;;5.53;4.68;;;15.80;75.00;;;;;;5030844;28;20034;-61
2023/09/06 00:30:39;;;;;;;4.72;4.22;;;15.80;75.00;;;;;;5041344;28;20065;-64
2023/09/06 00:33:06;;;;;;;5.07;4.47;;;15.80;74.90;;;;;;5031555;28;20123;-64
2023/09/06 00:35:32;;;;;;;6.15;5.10;;;15.70;74.90;;;;;;5030354;28;20029;-64
2023/09/06 00:38:05;;;;;;;6.72;5.50;;;15.70;75.10;;;;;;5031224;28;20039;-64
2023/09/06 00:40:38;;;;;;;6.00;5.13;;;15.60;75.30;;;;;;5031520;28;20179;-64
2023/09/06 00:43:05;;;;;;;7.07;5.57;;;15.70;75.60;;;;;;5032274;28;20026;-64
2023/09/06 00:45:31;;;;;;;8.13;5.82;;;15.60;75.70;;;;;;5029163;28;20112;-64
2023/09/06 00:47:58;;;;;;;7.82;6.35;;;15.60;75.80;;;;;;5028076;28;20080;-63
2023/09/06 00:50:26;;;;;;;6.95;6.07;;;15.60;76.00;;;;;;5029229;28;20818;-64
2023/09/06 00:52:52;;;;;;;8.57;6.40;;;15.50;76.00;;;;;;5032037;28;20045;-64
2023/09/06 00:55:19;;;;;;;7.85;6.75;;;15.70;76.10;;;;;;5032833;28;21072;-64
2023/09/06 00:57:45;;;;;;;8.15;6.60;;;15.70;76.30;;;;;;5029105;28;20033;-62
2023/09/06 01:00:22;;;;;;;10.75;6.95;;;15.70;76.40;;;;;;5029534;28;20524;-64
2023/09/06 01:02:49;;;;;;;8.65;6.72;;;15.80;76.50;;;;;;5027099;28;20505;-64
2023/09/06 01:05:16;;;;;;;7.80;6.30;;;15.80;76.30;;;;;;5029730;28;20037;-64
2023/09/06 01:07:46;;;;;;;8.52;6.38;;;15.90;76.50;;;;;;5028296;28;20086;-64
2023/09/06 01:10:12;;;;;;;6.97;6.28;;;15.90;76.50;;;;;;5026056;28;20589;-63
2023/09/06 01:12:37;;;;;;;7.55;6.03;;;16.00;76.30;;;;;;5029362;28;20128;-64
2023/09/06 01:15:04;;;;;;;7.90;6.43;;;16.10;76.30;;;;;;5027514;28;20034;-64
2023/09/06 01:17:34;;;;;;;6.47;5.70;;;16.10;77.10;;;;;;5030702;28;20103;-63
2023/09/06 01:20:18;;;;;;;6.30;5.70;;;16.10;76.30;;;;;;5031553;28;20116;-63
2023/09/06 01:22:51;;;;;;;8.25;6.38;;;16.20;76.40;;;;;;5029057;28;20406;-63
2023/09/06 01:25:17;;;;;;;6.63;5.72;;;16.30;76.20;;;;;;5029408;28;20608;-63
2023/09/06 01:27:44;;;;;;;9.48;5.75;;;16.30;75.80;;;;;;5030323;28;20120;-63
2023/09/06 01:30:10;;;;;;;7.18;6.18;;;16.30;75.70;;;;;;5030124;28;20060;-63
2023/09/06 01:32:36;;;;;;;7.93;6.20;;;16.30;75.60;;;;;;5029046;28;20050;-63
2023/09/06 01:35:03;;;;;;;7.82;6.50;;;16.30;75.30;;;;;;5025292;28;20090;-63
2023/09/06 01:37:29;;;;;;;8.43;6.05;;;16.30;75.20;;;;;;5027372;28;20049;-63
2023/09/06 01:39:55;;;;;;;6.93;6.22;;;16.40;75.20;;;;;;5028862;28;20032;-63
2023/09/06 01:42:22;;;;;;;8.95;6.47;;;16.20;75.00;;;;;;5027193;28;20044;-63
2023/09/06 01:44:48;;;;;;;6.90;6.20;;;16.20;75.00;;;;;;5031744;28;20498;-63
2023/09/06 01:47:14;;;;;;;6.97;6.22;;;16.20;75.10;;;;;;5029035;28;20041;-63
2023/09/06 01:49:39;;;;;;;7.50;6.50;;;16.10;75.00;;;;;;5028525;28;20674;-63
2023/09/06 01:52:05;;;;;;;7.72;5.95;;;16.10;75.00;;;;;;5028605;28;20213;-64
2023/09/06 01:54:30;;;;;;;8.75;6.10;;;16.10;75.00;;;;;;5029607;28;20280;-64
2023/09/06 01:56:56;;;;;;;6.45;5.60;;;16.00;74.90;;;;;;5027580;28;20202;-63
2023/09/06 01:59:23;;;;;;;5.90;5.15;;;16.00;74.80;;;;;;5028256;28;20102;-64
2023/09/06 02:01:54;;;;;;;6.35;5.25;;;15.90;74.70;;;;;;5028085;28;20041;-64
2023/09/06 02:04:19;;;;;;;6.10;5.38;;;15.90;74.70;;;;;;5027578;28;20394;-63
2023/09/06 02:06:45;;;;;;;6.97;5.30;;;15.90;74.70;;;;;;5024408;28;20048;-64
2023/09/06 02:09:10;;;;;;;5.95;5.35;;;15.90;74.70;;;;;;5029416;28;20041;-64
2023/09/06 02:11:36;;;;;;;8.50;6.40;;;15.80;74.60;;;;;;5029073;28;20037;-64
2023/09/06 02:14:01;;;;;;;6.75;5.25;;;15.70;74.70;;;;;;5030693;28;20558;-64
2023/09/06 02:16:28;;;;;;;7.03;5.57;;;15.70;75.70;;;;;;5027404;28;20042;-64
2023/09/06 02:18:53;;;;;;;7.00;5.47;;;15.70;74.90;;;;;;5029562;28;20297;-64
2023/09/06 02:21:19;;;;;;;8.15;6.20;;;15.60;74.70;;;;;;5028651;28;20602;-63
2023/09/06 02:23:44;;;;;;;7.35;5.70;;;15.50;74.60;;;;;;5031583;28;20044;-63
2023/09/06 02:26:10;;;;;;;7.40;5.65;;;15.50;74.60;;;;;;5032160;28;20953;-63
2023/09/06 02:28:36;;;;;;;5.78;5.15;;;15.40;74.80;;;;;;5030734;28;20457;-64
2023/09/06 02:31:02;;;;;;;6.72;5.45;;;15.40;75.10;;;;;;5027040;28;20025;-64
2023/09/06 02:33:28;;;;;;;7.18;5.57;;;15.30;75.30;;;;;;5029193;28;20413;-64
2023/09/06 02:35:53;;;;;;;7.63;5.57;;;15.20;75.30;;;;;;5029947;28;20072;-62
2023/09/06 02:38:19;;;;;;;6.68;5.30;;;15.20;75.50;;;;;;5029034;28;20033;-64
2023/09/06 02:40:45;;;;;;;5.43;4.93;;;15.20;75.70;;;;;;5030918;28;20091;-63
2023/09/06 02:43:12;;;;;;;5.93;5.32;;;15.20;75.70;;;;;;5026725;28;20072;-62
2023/09/06 02:45:38;;;;;;;8.25;5.85;;;15.20;75.60;;;;;;5024395;28;20029;-63
2023/09/06 02:48:12;;;;;;;6.13;5.53;;;15.20;75.50;;;;;;5030728;28;20033;-62
2023/09/06 02:50:39;;;;;;;7.05;6.32;;;15.10;75.40;;;;;;5028724;28;20368;-62
2023/09/06 02:53:15;;;;;;;8.18;6.38;;;15.10;75.40;;;;;;5027772;28;20056;-63
2023/09/06 02:55:41;;;;;;;6.78;5.95;;;15.00;75.60;;;;;;5027583;28;20421;-63
2023/09/06 02:58:07;;;;;;;7.03;5.93;;;14.90;75.80;;;;;;5024569;28;20037;-62
2023/09/06 03:00:36;;;;;;;8.57;6.00;;;14.80;76.10;;;;;;5026201;28;20139;-63
2023/09/06 03:03:07;;;;;;;6.30;5.63;;;14.80;76.50;;;;;;5026027;28;20044;-63
2023/09/06 03:05:43;;;;;;;6.22;5.57;;;14.80;76.70;;;;;;5028872;28;22315;-64
2023/09/06 03:08:10;;;;;;;5.97;5.38;;;14.70;77.00;;;;;;5028263;28;20061;-64
2023/09/06 03:10:35;;;;;;;7.65;6.25;;;14.70;77.00;;;;;;5026344;28;20068;-63
2023/09/06 03:13:01;;;;;;;6.18;5.57;;;14.70;77.00;;;;;;5032401;28;20516;-63
2023/09/06 03:15:28;;;;;;;7.10;6.18;;;14.70;76.90;;;;;;5031883;28;20521;-63
2023/09/06 03:18:01;;;;;;;9.65;6.05;;;14.70;76.80;;;;;;5034651;28;20167;-63
2023/09/06 03:23:02;;;;;;;6.22;5.63;;;14.70;76.80;;;;;;5034060;28;20049;-63
2023/09/06 03:25:28;;;;;;;7.75;6.07;;;14.70;76.80;;;;;;5034057;28;20075;-64
2023/09/06 03:28:01;;;;;;;6.57;5.68;;;14.70;77.00;;;;;;5029482;28;20036;-62
2023/09/06 03:30:29;;;;;;;6.82;6.03;;;14.60;77.00;;;;;;5029431;28;20053;-62
2023/09/06 03:32:55;;;;;;;7.22;5.95;;;14.60;77.00;;;;;;5030523;28;20456;-64
2023/09/06 03:35:22;;;;;;;6.38;5.60;;;14.60;77.10;;;;;;5031438;28;20045;-63
2023/09/06 03:37:49;;;;;;;6.90;5.47;;;14.80;77.30;;;;;;5026213;28;20436;-61
2023/09/06 03:40:25;;;;;;;7.03;5.72;;;14.70;77.20;;;;;;5030440;28;20037;-63
2023/09/06 03:42:54;;;;;;;6.82;6.05;;;14.70;76.80;;;;;;5030698;28;20404;-63
2023/09/06 03:45:24;;;;;;;7.50;6.13;;;14.70;76.80;;;;;;5029612;28;20380;-63
2023/09/06 03:47:54;;;;;;;6.60;5.90;;;14.70;76.60;;;;;;5029964;28;20037;-63
2023/09/06 03:50:26;;;;;;;6.70;5.75;;;14.70;76.60;;;;;;5029164;28;20568;-63
2023/09/06 03:52:51;;;;;;;7.72;6.05;;;14.60;76.70;;;;;;5027765;28;20033;-63
2023/09/06 03:55:17;;;;;;;7.50;6.70;;;14.70;76.60;;;;;;5032294;28;20497;-63
2023/09/06 03:57:43;;;;;;;6.95;6.25;;;14.60;76.50;;;;;;5033021;28;20044;-63
2023/09/06 04:00:26;;;;;;;8.00;6.65;;;14.60;76.50;;;;;;5029364;28;20037;-64
2023/09/06 04:02:56;;;;;;;9.50;6.63;;;14.60;76.50;;;;;;5027913;28;20041;-63
2023/09/06 04:05:25;;;;;;;7.43;6.68;;;14.50;76.50;;;;;;5032855;28;20094;-63
2023/09/06 04:07:58;;;;;;;7.88;6.57;;;14.50;76.70;;;;;;5028089;28;20041;-62
2023/09/06 04:10:27;;;;;;;8.30;6.80;;;14.50;77.00;;;;;;5032150;28;20110;-63
2023/09/06 04:12:55;;;;;;;10.90;7.28;;;14.40;77.00;;;;;;5030785;28;20041;-63
2023/09/06 04:15:24;;;;;;;7.03;6.28;;;14.40;77.20;;;;;;5024105;28;20377;-63
2023/09/06 04:17:58;;;;;;;8.68;6.50;;;14.40;77.50;;;;;;5028766;28;20083;-63
2023/09/06 04:20:31;;;;;;;6.95;6.07;;;14.40;77.70;;;;;;5026074;28;20041;-61
2023/09/06 04:22:57;;;;;;;11.25;6.43;;;14.40;77.90;;;;;;5026502;28;20045;-62
2023/09/06 04:25:26;;;;;;;6.93;5.95;;;14.40;77.30;;;;;;5029639;28;20506;-63
2023/09/06 04:27:55;;;;;;;6.53;5.85;;;14.40;77.10;;;;;;5033766;28;20045;-63
2023/09/06 04:30:28;;;;;;;7.03;6.32;;;14.40;77.00;;;;;;5033881;28;20124;-63
2023/09/06 04:32:54;;;;;;;7.68;5.75;;;14.40;76.90;;;;;;5036175;28;20034;-63
2023/09/06 04:35:22;;;;;;;8.75;5.78;;;14.40;76.60;;;;;;5034731;28;20079;-63
2023/09/06 04:37:48;;;;;;;6.90;5.95;;;14.40;76.80;;;;;;5035052;28;20033;-63
2023/09/06 04:40:14;;;;;;;6.32;4.95;;;14.30;76.80;;;;;;5035181;28;20041;-63
2023/09/06 04:42:43;;;;;;;6.05;5.13;;;14.30;76.60;;;;;;5035239;28;20041;-63
2023/09/06 04:45:11;;;;;;;5.15;4.65;;;14.30;77.00;;;;;;5035681;28;20036;-63
2023/09/06 04:47:43;;;;;;;5.68;4.97;;;14.20;77.20;;;;;;5033827;28;20099;-62
2023/09/06 04:50:11;;;;;;;5.70;5.05;;;14.20;77.30;;;;;;5034411;28;20037;-62
2023/09/06 04:52:38;;;;;;;7.40;5.55;;;14.10;77.00;;;;;;5033437;28;20278;-64
2023/09/06 04:55:07;;;;;;;7.25;5.40;;;14.20;77.10;;;;;;5034965;28;20065;-63
2023/09/06 04:57:33;;;;;;;7.85;6.10;;;14.10;77.00;;;;;;5033727;28;20110;-64
2023/09/06 04:59:59;;;;;;;9.70;6.80;;;14.00;77.20;;;;;;5033553;28;20497;-63
2023/09/06 05:02:24;;;;;;;6.88;6.18;;;14.00;77.50;;;;;;5033426;28;20040;-61
2023/09/06 05:04:52;;;;;;;8.40;6.70;;;14.00;77.50;;;;;;5033589;28;20064;-63
2023/09/06 05:07:17;;;;;;;9.30;6.45;;;13.90;77.70;;;;;;5034518;28;20040;-63
2023/09/06 05:09:43;;;;;;;9.63;6.20;;;13.90;78.00;;;;;;5034293;28;20333;-63
2023/09/06 05:12:09;;;;;;;8.52;7.13;;;13.90;78.30;;;;;;5032159;28;20032;-63
2023/09/06 05:14:34;;;;;;;8.85;7.43;;;13.90;78.50;;;;;;5032430;28;20037;-63
2023/09/06 05:17:00;;;;;;;10.32;8.80;;;13.90;78.50;;;;;;5034114;28;20087;-63
2023/09/06 05:19:27;;;;;;;10.52;8.07;;;13.80;78.40;;;;;;5035381;28;20037;-63
2023/09/06 05:21:55;;;;;;;9.32;7.88;;;13.90;78.60;;;;;;5033559;28;20040;-63
2023/09/06 05:24:20;;;;;;;10.60;8.18;;;13.80;78.80;;;;;;5033257;28;20393;-61
2023/09/06 05:26:46;;;;;;;11.55;8.30;;;13.80;79.10;;;;;;5033582;28;20036;-63
2023/09/06 05:29:14;;;;;;;9.27;7.75;;;13.80;79.40;;;;;;5032917;28;20095;-63
2023/09/06 05:31:40;;;;;;;9.40;7.45;;;13.80;79.60;;;;;;5033769;28;20104;-62
2023/09/06 05:34:05;;;;;;;11.18;8.40;;;13.80;79.80;;;;;;5031216;28;20033;-63
2023/09/06 05:36:31;;;;;;;11.05;7.88;;;13.80;80.10;;;;;;5031215;28;20440;-63
2023/09/06 05:38:56;;;;;;;10.00;8.07;;;13.80;80.30;;;;;;5034171;28;20056;-63
2023/09/06 05:41:22;;;;;;;12.13;8.20;;;13.90;80.40;;;;;;5032910;28;20463;-63
2023/09/06 05:43:48;;;;;;;11.38;8.20;;;13.90;80.40;;;;;;5034244;28;20116;-63
2023/09/06 05:46:13;;;;;;;10.35;7.38;;;13.90;80.40;;;;;;5033706;28;20029;-63
2023/09/06 05:48:39;;;;;;;10.43;6.88;;;14.00;80.70;;;;;;5034214;28;20038;-63
2023/09/06 05:51:05;;;;;;;10.50;7.72;;;14.00;80.80;;;;;;5033258;28;20038;-63
2023/09/06 05:53:30;;;;;;;9.90;7.22;;;14.00;80.90;;;;;;5030542;28;20025;-63
2023/09/06 05:55:57;;;;;;;12.85;7.15;;;14.10;81.00;;;;;;5032715;28;20356;-62
2023/09/06 05:58:23;;;;;;;9.93;7.95;;;14.10;81.00;;;;;;5032795;28;20057;-64
2023/09/06 06:00:53;;;;;;;11.20;7.68;;;14.20;81.20;;;;;;5033246;28;21386;-62
2023/09/06 06:03:19;;;;;;;9.40;7.75;;;14.30;81.30;;;;;;5031630;28;20087;-63
2023/09/06 06:05:44;;;;;;;9.57;6.85;;;14.30;81.30;;;;;;5032052;28;20037;-62
2023/09/06 06:08:10;;;;;;;9.73;7.90;;;14.30;81.20;;;;;;5032769;28;20470;-62
2023/09/06 06:10:36;;;;;;;9.23;7.28;;;14.40;81.30;;;;;;5030738;28;20036;-63
2023/09/06 06:13:04;;;;;;;12.13;7.22;;;14.40;81.50;;;;;;5033587;28;20104;-63
2023/09/06 06:15:30;;;;;;;8.25;7.15;;;14.50;81.70;;;;;;5034041;28;20038;-63
2023/09/06 06:17:55;;;;;;;10.50;7.85;;;14.50;82.00;;;;;;5035829;28;20486;-62
2023/09/06 06:20:21;;;;;;;9.40;7.10;;;14.60;82.20;;;;;;5035130;28;20068;-62
2023/09/06 06:22:47;;;;;;;8.15;7.13;;;14.70;82.30;;;;;;5032154;28;20052;-62
2023/09/06 06:25:12;;;;;;;9.25;7.22;;;14.80;82.40;;;;;;5032876;28;20131;-63
2023/09/06 06:27:39;;;;;;;8.55;6.72;;;14.80;82.30;;;;;;5031482;28;20038;-63
2023/09/06 06:30:08;;;;;;;9.38;7.13;;;14.90;82.40;;;;;;5031955;28;20387;-62
2023/09/06 06:32:34;;;;;;;8.38;7.30;;;15.00;82.70;;;;;;5033652;28;20037;-63
2023/09/06 06:35:06;;;;;;;11.02;7.82;;;15.10;82.40;;;;;;5033394;28;20121;-62
2023/09/06 06:37:32;;;;;;;9.35;7.20;;;15.20;82.40;;;;;;5033101;28;20129;-62
2023/09/06 06:40:01;;;;;;;10.32;7.35;;;15.20;82.30;;;;;;5035010;28;20033;-63
2023/09/06 06:42:27;;;;;;;9.10;7.78;;;15.30;82.30;;;;;;5031201;28;20061;-64
2023/09/06 06:44:53;;;;;;;8.82;7.47;;;15.30;82.20;;;;;;5034683;28;20026;-62
2023/09/06 06:47:18;;;;;;;8.88;7.55;;;15.40;82.20;;;;;;5037676;28;20041;-63
2023/09/06 06:49:44;;;;;;;9.77;7.43;;;15.50;82.20;;;;;;5036371;28;20587;-63
2023/09/06 06:52:09;;;;;;;11.90;7.32;;;15.50;81.90;;;;;;5035351;28;20037;-63
2023/09/06 06:54:39;;;;;;;11.75;7.50;;;15.50;81.80;;;;;;5036602;28;20061;-63
2023/09/06 06:57:05;;;;;;;9.52;7.00;;;15.60;81.90;;;;;;5034147;28;20946;-63
2023/09/06 06:59:31;;;;;;;8.77;7.72;;;15.70;81.90;;;;;;5036154;28;20040;-62
2023/09/06 07:01:56;;;;;;;9.85;7.03;;;15.70;81.90;;;;;;5031023;28;20388;-62
2023/09/06 07:04:22;;;;;;;9.18;7.32;;;15.80;81.70;;;;;;5037280;28;20482;-63
2023/09/06 07:06:47;;;;;;;13.13;7.57;;;15.80;81.90;;;;;;5035351;28;20037;-63
2023/09/06 07:09:13;;;;;;;11.70;7.53;;;15.90;82.00;;;;;;5035839;28;20041;-63
2023/09/06 07:11:38;;;;;;;12.75;7.80;;;16.00;82.10;;;;;;5032305;28;20029;-63
2023/09/06 07:14:04;;;;;;;8.43;7.28;;;16.00;82.20;;;;;;5036709;28;20043;-61
2023/09/06 07:16:31;;;;;;;8.15;7.35;;;16.10;82.50;;;;;;5035053;28;20033;-63
2023/09/06 07:18:57;;;;;;;8.27;6.53;;;16.10;82.20;;;;;;5034890;28;20100;-63
2023/09/06 07:21:24;;;;;;;9.30;7.28;;;16.20;82.20;;;;;;5036184;28;20033;-62
2023/09/06 07:23:50;;;;;;;8.57;6.63;;;16.20;82.20;;;;;;5035753;28;20136;-63
2023/09/06 07:26:15;;;;;;;10.27;6.72;;;16.30;82.20;;;;;;5037213;28;20105;-62
2023/09/06 07:28:43;;;;;;;7.90;6.72;;;16.40;82.00;;;;;;5033534;28;20042;-63
2023/09/06 07:31:10;;;;;;;7.55;6.82;;;16.50;81.60;;;;;;5035546;28;20029;-63
2023/09/06 07:33:36;;;;;;;8.38;7.38;;;16.60;81.50;;;;;;5037788;28;20029;-63
2023/09/06 07:36:02;;;;;;;10.73;7.45;;;16.60;81.20;;;;;;5034509;28;20056;-63
2023/09/06 07:38:28;;;;;;;9.57;7.65;;;16.70;81.30;;;;;;5035680;28;20082;-63
2023/09/06 07:41:03;;;;;;;9.35;7.07;;;16.80;81.30;;;;;;5036645;28;20033;-63
2023/09/06 07:43:29;;;;;;;12.15;6.95;;;17.00;81.30;;;;;;5035236;28;20677;-63
2023/09/06 07:45:59;;;;;;;7.63;6.75;;;17.00;80.90;;;;;;5035333;28;20496;-63
2023/09/06 07:48:26;;;;;;;8.65;7.35;;;17.10;80.80;;;;;;5035990;28;20116;-62
2023/09/06 07:50:52;;;;;;;7.28;6.57;;;17.20;81.40;;;;;;5035788;28;20124;-61
2023/09/06 07:53:18;;;;;;;11.70;6.97;;;17.30;80.40;;;;;;5035223;28;20112;-62
2023/09/06 07:55:45;;;;;;;8.98;7.30;;;17.40;80.40;;;;;;5034978;28;20037;-62
2023/09/06 07:58:12;;;;;;;13.70;6.90;;;17.50;80.30;;;;;;5031446;28;20125;-63
2023/09/06 08:00:37;;;;;;;8.30;7.28;;;17.50;80.10;;;;;;5034751;28;20497;-63
2023/09/06 08:03:03;;;;;;;12.82;7.53;;;17.60;79.90;;;;;;5034715;28;20038;-63
2023/09/06 08:05:31;;;;;;;8.38;7.32;;;17.70;80.00;;;;;;5034862;28;20447;-63
2023/09/06 08:07:57;;;;;;;8.77;7.43;;;17.80;79.80;;;;;;5036503;28;20390;-63
2023/09/06 08:10:23;;;;;;;7.90;6.55;;;17.90;79.80;;;;;;5034757;28;20045;-63
2023/09/06 08:12:49;;;;;;;12.75;7.47;;;18.00;79.90;;;;;;5032694;28;20569;-62
2023/09/06 08:15:14;;;;;;;11.07;6.72;;;18.00;79.80;;;;;;5035866;28;20041;-63
2023/09/06 08:17:41;;;;;;;8.38;6.97;;;18.20;79.60;;;;;;5035702;28;20033;-63
2023/09/06 08:20:09;;;;;;;8.70;7.07;;;18.20;79.40;;;;;;5035678;28;20509;-63
2023/09/06 08:22:36;;;;;;;9.55;7.47;;;18.30;79.20;;;;;;5036825;28;20042;-62
2023/09/06 08:25:03;;;;;;;9.73;7.47;;;18.40;78.80;;;;;;5035102;28;20092;-64
2023/09/06 08:27:28;;;;;;;9.88;6.95;;;18.50;78.70;;;;;;5034469;28;20055;-62
2023/09/06 08:29:54;;;;;;;9.45;7.18;;;18.60;78.60;;;;;;5036451;28;20037;-63
2023/09/06 08:32:19;;;;;;;8.23;7.30;;;18.60;78.70;;;;;;5036681;28;20112;-63
2023/09/06 08:34:45;;;;;;;9.20;7.82;;;18.70;78.20;;;;;;5035950;28;20042;-61
2023/09/06 08:37:11;;;;;;;10.63;7.22;;;18.80;78.00;;;;;;5035612;28;20198;-64
2023/09/06 08:39:36;;;;;;;8.57;7.22;;;18.90;78.00;;;;;;5038668;28;20029;-63
2023/09/06 08:42:04;;;;;;;13.50;8.48;;;18.90;77.70;;;;;;5035459;28;20455;-63
2023/09/06 08:44:32;;;;;;;9.63;7.50;;;19.00;77.70;;;;;;5032223;28;20086;-63
2023/09/06 08:47:01;;;;;;;13.38;8.10;;;19.10;77.30;;;;;;5034869;28;20037;-63
2023/09/06 08:49:27;;;;;;;12.23;9.15;;;19.10;77.20;;;;;;5034422;28;20107;-63
2023/09/06 08:51:55;;;;;;;9.63;7.97;;;19.20;76.90;;;;;;5035649;28;20083;-63
2023/09/06 08:54:23;;;;;;;10.82;8.32;;;19.30;76.60;;;;;;5035013;28;20037;-64
2023/09/06 08:56:50;;;;;;;9.93;7.30;;;19.30;76.30;;;;;;5032151;28;20029;-62
2023/09/06 08:59:16;;;;;;;9.55;7.85;;;19.30;76.40;;;;;;5033748;28;20108;-64
2023/09/06 09:01:42;;;;;;;9.95;8.57;;;19.40;76.50;;;;;;5032779;28;21014;-63
2023/09/06 09:04:09;;;;;;;8.68;7.63;;;19.50;76.70;;;;;;5036025;28;20067;-63
2023/09/06 09:06:35;;;;;;;10.00;7.93;;;19.60;77.10;;;;;;5032924;28;20051;-63
2023/09/06 09:09:14;;;;;;;8.90;7.97;;;19.70;76.90;;;;;;5029694;28;20041;-63
2023/09/06 09:11:44;;;;;;;7.43;6.60;;;19.80;76.30;;;;;;5032988;28;20535;-63
2023/09/06 09:14:26;;;;;;;8.13;7.32;;;19.90;76.50;;;;;;5032524;28;20041;-62
2023/09/06 09:16:57;;;;;;;8.18;7.20;;;19.90;76.00;;;;;;5034951;28;20087;-63
2023/09/06 09:19:23;;;;;;;8.05;7.10;;;20.00;75.80;;;;;;5034765;28;20044;-62
2023/09/06 09:21:55;;;;;;;7.70;6.68;;;20.10;75.40;;;;;;5033896;28;20064;-63
2023/09/06 09:24:28;;;;;;;10.35;7.93;;;20.20;76.60;;;;;;5035233;28;20072;-63
2023/09/06 09:26:56;;;;;;;10.80;7.00;;;20.30;75.10;;;;;;5032037;28;20107;-63
2023/09/06 09:29:27;;;;;;;8.82;7.93;;;20.40;75.30;;;;;;5034153;28;20068;-63
2023/09/06 09:31:53;;;;;;;9.95;6.95;;;20.50;74.80;;;;;;5035668;28;20049;-63
2023/09/06 09:34:18;;;;;;;10.20;8.02;;;20.50;74.90;;;;;;5035383;28;20036;-63
2023/09/06 09:36:51;;;;;;;9.10;7.57;;;20.60;74.70;;;;;;5035708;28;20057;-63
2023/09/06 09:39:18;;;;;;;10.70;7.65;;;20.70;74.80;;;;;;5032887;28;20515;-63
2023/09/06 09:41:44;;;;;;;9.45;7.97;;;20.80;74.40;;;;;;5032403;28;20118;-63
2023/09/06 09:44:19;;;;;;;10.23;6.68;;;20.80;74.20;;;;;;5032279;28;20064;-63
2023/09/06 09:46:45;;;;;;;7.88;6.50;;;20.90;74.20;;;;;;5034470;28;20063;-62
2023/09/06 09:49:12;;;;;;;10.13;6.93;;;21.00;74.20;;;;;;5033444;28;20037;-63
2023/09/06 09:51:39;;;;;;;9.05;7.30;;;21.10;74.10;;;;;;5035797;28;20071;-63
2023/09/06 09:54:06;;;;;;;7.28;6.45;;;21.20;74.10;;;;;;5034455;28;20029;-63
2023/09/06 09:56:37;;;;;;;19.73;6.85;;;21.30;74.00;;;;;;5032847;28;20029;-63
2023/09/06 09:59:04;;;;;;;7.93;7.13;;;21.40;73.70;;;;;;5032584;28;20041;-62
2023/09/06 10:01:31;;;;;;;9.65;8.05;;;21.50;73.50;;;;;;5035240;28;20025;-64
2023/09/06 10:03:58;;;;;;;9.13;6.75;;;21.60;73.20;;;;;;5033475;28;20501;-63
2023/09/06 10:06:31;;;;;;;9.13;6.78;;;21.70;73.30;;;;;;5034115;28;20045;-62
2023/09/06 10:08:59;;;;;;;8.98;7.25;;;21.80;72.80;;;;;;5031714;28;20147;-64
2023/09/06 10:11:26;;;;;;;10.13;7.28;;;21.90;72.60;;;;;;5032303;28;20512;-64
2023/09/06 10:13:52;;;;;;;10.50;7.25;;;22.00;72.10;;;;;;5032440;28;20041;-63
2023/09/06 10:16:21;;;;;;;7.70;5.72;;;22.10;72.20;;;;;;5036027;28;20109;-63
2023/09/06 10:18:48;;;;;;;9.20;6.63;;;22.20;72.30;;;;;;5035765;28;20029;-63
2023/09/06 10:21:15;;;;;;;7.75;6.82;;;22.30;72.20;;;;;;5037703;28;20228;-64
2023/09/06 10:23:46;;;;;;;8.55;6.50;;;22.40;71.90;;;;;;5037885;28;20348;-63
2023/09/06 10:26:23;;;;;;;9.20;6.60;;;22.40;71.20;;;;;;5035888;28;20037;-63
2023/09/06 10:28:59;;;;;;;6.95;5.97;;;22.50;71.30;;;;;;5037913;28;20033;-64
2023/09/06 10:31:35;;;;;;;8.32;6.80;;;22.60;70.70;;;;;;5037485;28;20029;-64
2023/09/06 10:34:01;;;;;;;6.50;5.82;;;22.70;70.40;;;;;;5037922;28;20025;-63
2023/09/06 10:36:30;;;;;;;6.50;5.90;;;22.80;70.60;;;;;;5039158;28;20037;-63
2023/09/06 10:38:57;;;;;;;7.00;6.18;;;22.90;70.20;;;;;;5038628;28;20033;-61
2023/09/06 10:41:24;;;;;;;7.03;6.30;;;22.90;70.40;;;;;;5039529;28;20037;-64
2023/09/06 10:43:58;;;;;;;7.15;6.30;;;23.00;69.60;;;;;;5038020;28;20044;-63
2023/09/06 10:46:31;;;;;;;8.95;7.32;;;23.10;69.30;;;;;;5036912;28;20029;-64
2023/09/06 10:49:16;;;;;;;7.20;6.28;;;23.10;69.20;;;;;;5037456;28;20037;-62
2023/09/06 10:52:08;;;;;;;6.10;5.30;;;23.20;68.10;;;;;;5037032;28;20052;-64
2023/09/06 10:54:41;;;;;;;7.95;5.88;;;23.20;68.70;;;;;;5037616;28;20052;-63
2023/09/06 10:57:10;;;;;;;7.68;6.18;;;23.30;68.60;;;;;;5037424;28;20037;-64
2023/09/06 10:59:37;;;;;;;6.72;5.72;;;23.30;68.80;;;;;;5035417;28;20037;-64
2023/09/06 11:02:19;;;;;;;6.38;5.78;;;23.40;69.90;;;;;;5033876;28;20033;-64
2023/09/06 11:04:45;;;;;;;11.02;6.60;;;23.40;68.10;;;;;;5037584;28;20068;-64
2023/09/06 11:07:10;;;;;;;7.75;5.40;;;23.50;68.60;;;;;;5036327;28;20043;-63
2023/09/06 11:09:43;;;;;;;7.00;5.30;;;23.60;68.50;;;;;;5036766;28;20033;-63
2023/09/06 11:12:12;;;;;;;6.15;5.53;;;23.60;68.20;;;;;;5033833;28;20029;-64
2023/09/06 11:14:39;;;;;;;6.93;5.72;;;23.70;68.30;;;;;;5038074;28;20566;-63
2023/09/06 11:17:05;;;;;;;5.43;4.80;;;23.80;68.00;;;;;;5038091;28;20528;-64
2023/09/06 11:19:30;;;;;;;7.03;4.63;;;23.90;68.00;;;;;;5038240;28;20028;-64
2023/09/06 11:22:06;;;;;;;6.38;5.50;;;23.90;68.70;;;;;;5036612;28;20037;-63
2023/09/06 11:24:34;;;;;;;6.20;4.93;;;24.00;67.80;;;;;;5037992;28;20043;-64
2023/09/06 11:27:03;;;;;;;6.40;5.43;;;24.10;68.30;;;;;;5037230;28;20103;-64
2023/09/06 11:29:30;;;;;;;4.32;3.97;;;24.20;67.60;;;;;;5037577;28;20260;-64
2023/09/06 11:32:08;;;;;;;6.45;5.30;;;24.30;67.80;;;;;;5034404;28;20045;-63
2023/09/06 11:34:41;;;;;;;6.70;4.70;;;24.40;66.50;;;;;;5037287;28;20049;-64
2023/09/06 11:37:10;;;;;;;6.20;4.90;;;24.40;66.90;;;;;;5038059;28;20032;-63
2023/09/06 11:39:39;;;;;;;6.00;4.60;;;24.50;67.30;;;;;;5036563;28;20529;-64
2023/09/06 11:42:08;;;;;;;4.55;4.15;;;24.60;66.90;;;;;;5034781;28;20317;-64
2023/09/06 11:44:37;;;;;;;4.65;4.13;;;24.70;66.90;;;;;;5050628;28;20056;-64
2023/09/06 11:47:06;;;;;;;5.55;4.45;;;24.70;67.10;;;;;;5037102;28;20045;-64
2023/09/06 11:49:35;;;;;;;4.88;4.05;;;24.80;66.10;;;;;;5036782;28;20037;-64
2023/09/06 11:52:05;;;;;;;5.00;4.60;;;24.90;66.40;;;;;;5036604;28;20080;-64
2023/09/06 11:54:32;;;;;;;6.15;4.88;;;25.00;65.80;;;;;;5035570;28;20021;-63
2023/09/06 11:56:58;;;;;;;4.05;3.65;;;25.00;65.50;;;;;;5036493;28;20029;-64
2023/09/06 11:59:24;;;;;;;4.32;3.80;;;25.10;65.70;;;;;;5034790;28;20159;-64
2023/09/06 12:01:58;;;;;;;5.68;3.97;;;25.10;65.60;;;;;;5036792;28;20042;-64
2023/09/06 12:04:26;;;;;;;5.07;4.10;;;25.20;65.10;;;;;;5034569;28;20056;-64
2023/09/06 12:06:55;;;;;;;4.50;4.10;;;25.30;65.30;;;;;;5033688;28;20064;-64
2023/09/06 12:09:21;;;;;;;4.55;3.80;;;25.40;65.10;;;;;;5036737;28;20167;-64
2023/09/06 12:11:46;;;;;;;3.60;3.28;;;25.50;65.00;;;;;;5034408;28;20112;-64
2023/09/06 12:14:13;;;;;;;4.22;3.83;;;25.50;64.80;;;;;;5036939;28;20037;-64
2023/09/06 12:16:40;;;;;;;6.57;3.50;;;25.60;64.70;;;;;;5037994;28;20036;-64
2023/09/06 12:19:11;;;;;;;4.50;3.40;;;25.60;65.00;;;;;;5037588;28;20075;-64
2023/09/06 12:21:37;;;;;;;4.82;3.67;;;25.60;64.60;;;;;;5039006;28;20045;-63
2023/09/06 12:24:03;;;;;;;4.78;3.15;;;25.70;64.40;;;;;;5036501;28;20052;-64
2023/09/06 12:26:28;;;;;;;7.40;3.67;;;25.80;64.30;;;;;;5036565;28;20043;-64
2023/09/06 12:28:54;;;;;;;3.28;2.97;;;25.80;64.20;;;;;;5033643;28;20116;-64
2023/09/06 12:31:20;;;;;;;3.13;2.92;;;25.90;63.90;;;;;;5036286;28;20697;-63
2023/09/06 12:33:48;;;;;;;3.30;3.00;;;25.90;63.60;;;;;;5038891;28;20088;-64
2023/09/06 12:36:16;;;;;;;3.33;3.03;;;26.00;63.20;;;;;;5040451;28;20037;-64
2023/09/06 12:38:42;;;;;;;3.38;3.00;;;26.00;62.60;;;;;;5041630;28;20067;-64
2023/09/06 12:41:08;;;;;;;3.58;2.97;;;26.10;62.90;;;;;;5038398;28;20041;-64
2023/09/06 12:43:35;;;;;;;5.43;3.67;;;26.10;63.30;;;;;;5038723;28;20053;-64
2023/09/06 12:46:02;;;;;;;3.50;3.20;;;26.20;64.00;;;;;;5036013;28;20036;-64
2023/09/06 12:48:28;;;;;;;3.15;2.95;;;26.20;62.80;;;;;;5034461;28;20053;-63
2023/09/06 12:50:53;;;;;;;3.00;2.80;;;26.30;62.80;;;;;;5035540;28;20149;-64